Terminal Aerodrome Forecast
Issued by NWS

Home | Current Version | Previous Version | Text Only | Print | Product List | Glossary On
Versions: 1 2 3 4 5 6 7 8 9 10 11 12 13 14 15 16
000
FTUS46 KSEW 131500 AAA
TAFCLM
TAF AMD
KCLM 131509Z 1315/1412 30005KT P6SM VCFG SCT002
      TEMPO 1315/1317 2SM BR BKN002
     FM131700 30008KT P6SM SCT150
     FM140900 28007KT 3SM BR BKN003=

USA.gov is the U.S. government's official web portal to all federal, state and local government web resources and services.